Time;durP1;ratioP1;P1;durP2;ratioP2;P2;SDS_P1;SDS_P2;PMS_P1;PMS_P2;Temp;Humidity;BMP_temperature;BMP_pressure;BME280_temperature;BME280_humidity;BME280_pressure;Samples;Min_cycle;Max_cycle;Signal;HPM_P1;HPM_P2
2022/07/24 00:00:15;;;;;;;5.18;3.05;;;16.80;99.90;;;;;;5069811;28;20545;-63
2022/07/24 00:02:42;;;;;;;5.75;3.55;;;16.80;99.90;;;;;;5069353;28;20091;-64
2022/07/24 00:05:08;;;;;;;5.65;3.85;;;16.80;99.90;;;;;;5069770;28;20048;-64
2022/07/24 00:07:34;;;;;;;6.03;3.42;;;16.80;99.90;;;;;;5068918;28;20061;-63
2022/07/24 00:10:00;;;;;;;6.32;3.50;;;16.80;99.90;;;;;;5053278;28;20067;-64
2022/07/24 00:12:26;;;;;;;6.15;3.60;;;16.70;99.90;;;;;;5051312;28;20059;-63
2022/07/24 00:14:53;;;;;;;5.13;3.45;;;16.70;99.90;;;;;;5054300;28;20041;-63
2022/07/24 00:17:19;;;;;;;4.85;3.30;;;16.70;99.90;;;;;;5065610;28;20107;-64
2022/07/24 00:19:45;;;;;;;6.85;4.00;;;16.60;99.90;;;;;;5049269;28;20049;-64
2022/07/24 00:22:10;;;;;;;6.45;3.70;;;16.60;99.90;;;;;;5048512;28;20482;-64
2022/07/24 00:24:36;;;;;;;5.53;3.83;;;16.60;99.90;;;;;;5078104;28;20037;-63
2022/07/24 00:27:02;;;;;;;6.18;3.85;;;16.60;99.90;;;;;;5065785;28;20049;-64
2022/07/24 00:29:28;;;;;;;5.70;3.90;;;16.50;99.90;;;;;;5073051;28;20087;-64
2022/07/24 00:31:54;;;;;;;4.60;3.78;;;16.50;99.90;;;;;;5067116;28;20072;-64
2022/07/24 00:34:19;;;;;;;6.82;4.18;;;16.50;99.90;;;;;;5065247;28;20070;-64
2022/07/24 00:36:45;;;;;;;5.95;4.10;;;16.50;99.90;;;;;;5066734;28;20056;-64
2022/07/24 00:39:11;;;;;;;6.15;4.18;;;16.40;99.90;;;;;;5055534;28;20049;-63
2022/07/24 00:41:37;;;;;;;6.78;4.20;;;16.50;99.90;;;;;;5072357;28;20131;-64
2022/07/24 00:44:16;;;;;;;7.50;4.30;;;16.40;99.90;;;;;;5068335;28;20555;-63
2022/07/24 00:46:44;;;;;;;8.20;4.55;;;16.40;99.90;;;;;;5072064;28;20045;-63
2022/07/24 00:49:12;;;;;;;5.97;4.13;;;16.40;99.90;;;;;;5072537;28;20106;-64
2022/07/24 00:51:41;;;;;;;5.90;4.32;;;16.40;99.90;;;;;;5071437;28;20059;-63
2022/07/24 00:54:08;;;;;;;5.80;4.32;;;16.40;99.90;;;;;;5070979;28;20072;-63
2022/07/24 00:56:34;;;;;;;5.05;3.72;;;16.40;99.90;;;;;;5071176;28;20498;-63
2022/07/24 00:59:01;;;;;;;5.35;4.05;;;16.30;99.90;;;;;;5071472;28;20040;-63
2022/07/24 01:01:27;;;;;;;5.20;4.60;;;16.30;99.90;;;;;;5052023;28;20052;-64
2022/07/24 01:03:53;;;;;;;7.10;5.05;;;16.40;99.90;;;;;;5072182;28;20067;-64
2022/07/24 01:06:19;;;;;;;5.70;4.53;;;16.30;99.90;;;;;;5072203;28;20052;-63
2022/07/24 01:08:46;;;;;;;6.50;5.05;;;16.30;99.90;;;;;;5071993;28;20052;-64
2022/07/24 01:11:12;;;;;;;5.30;4.60;;;16.30;99.90;;;;;;5072751;28;20056;-64
2022/07/24 01:13:39;;;;;;;6.55;4.47;;;16.30;99.90;;;;;;5071550;28;20040;-63
2022/07/24 01:16:06;;;;;;;8.65;4.90;;;16.30;99.90;;;;;;5072171;28;20141;-64
2022/07/24 01:18:32;;;;;;;6.22;4.63;;;16.30;99.90;;;;;;5071781;28;20123;-66
2022/07/24 01:20:58;;;;;;;6.40;4.78;;;16.30;99.90;;;;;;5054942;28;20127;-63
2022/07/24 01:23:23;;;;;;;5.55;4.95;;;16.20;99.90;;;;;;5054884;28;20052;-64
2022/07/24 01:25:50;;;;;;;6.07;5.10;;;16.30;99.90;;;;;;5071355;28;20109;-64
2022/07/24 01:28:16;;;;;;;6.30;5.03;;;16.20;99.90;;;;;;5072145;28;20389;-64
2022/07/24 01:30:42;;;;;;;6.18;4.80;;;16.20;99.90;;;;;;5070146;28;20836;-64
2022/07/24 01:33:08;;;;;;;6.82;4.50;;;16.20;99.90;;;;;;5071098;28;20469;-65
2022/07/24 01:35:34;;;;;;;6.47;5.15;;;16.20;99.90;;;;;;5061450;28;20048;-67
2022/07/24 01:37:59;;;;;;;6.85;5.00;;;16.20;99.90;;;;;;5070810;28;20131;-64
2022/07/24 01:40:25;;;;;;;7.38;5.63;;;16.20;99.90;;;;;;5043995;28;20057;-63
2022/07/24 01:42:51;;;;;;;7.65;4.60;;;16.20;99.90;;;;;;5068161;28;20057;-64
2022/07/24 01:45:17;;;;;;;5.63;4.78;;;16.20;99.90;;;;;;5051865;28;20458;-64
2022/07/24 01:47:44;;;;;;;8.23;4.82;;;16.20;99.90;;;;;;5038010;28;20139;-64
2022/07/24 01:50:11;;;;;;;6.30;4.28;;;16.20;99.90;;;;;;5060439;28;20129;-64
2022/07/24 01:52:37;;;;;;;8.52;5.25;;;16.10;99.90;;;;;;5052163;28;20053;-64
2022/07/24 01:55:03;;;;;;;6.63;4.78;;;16.20;99.90;;;;;;5064206;28;20051;-63
2022/07/24 01:57:29;;;;;;;6.38;4.50;;;16.10;99.90;;;;;;5060821;28;20055;-64
2022/07/24 01:59:55;;;;;;;6.93;4.82;;;16.10;99.90;;;;;;5056879;28;20314;-64
2022/07/24 02:02:20;;;;;;;5.55;4.72;;;16.10;99.90;;;;;;5051878;28;20073;-64
2022/07/24 02:04:46;;;;;;;7.07;4.50;;;16.10;99.90;;;;;;5063830;28;20413;-64
2022/07/24 02:07:12;;;;;;;6.03;4.35;;;16.10;99.90;;;;;;5053607;28;20063;-64
2022/07/24 02:09:38;;;;;;;6.43;5.03;;;16.10;99.90;;;;;;5059489;28;20070;-66
2022/07/24 02:12:04;;;;;;;5.75;4.63;;;16.10;99.90;;;;;;5067152;28;20053;-64
2022/07/24 02:14:30;;;;;;;7.72;4.80;;;16.10;99.90;;;;;;5067906;28;20041;-64
2022/07/24 02:16:55;;;;;;;7.50;4.72;;;16.10;99.90;;;;;;5066218;28;20351;-64
2022/07/24 02:19:23;;;;;;;8.43;4.80;;;16.10;99.90;;;;;;5057886;28;20048;-65
2022/07/24 02:21:48;;;;;;;7.28;4.93;;;16.10;99.90;;;;;;5062354;28;20040;-63
2022/07/24 02:24:14;;;;;;;5.97;4.60;;;16.10;99.90;;;;;;5051174;28;20041;-64
2022/07/24 02:26:40;;;;;;;6.47;4.55;;;16.10;99.90;;;;;;5055792;28;20557;-66
2022/07/24 02:29:06;;;;;;;7.85;4.80;;;16.10;99.90;;;;;;5062108;28;20405;-64
2022/07/24 02:31:31;;;;;;;6.18;4.50;;;16.10;99.90;;;;;;5070430;28;20401;-64
2022/07/24 02:33:57;;;;;;;7.00;4.45;;;16.10;99.90;;;;;;5068648;28;20036;-63
2022/07/24 02:36:23;;;;;;;6.28;4.38;;;16.10;99.90;;;;;;5064132;28;20119;-64
2022/07/24 02:38:48;;;;;;;6.47;4.57;;;16.10;99.90;;;;;;5067706;28;20119;-63
2022/07/24 02:41:14;;;;;;;6.13;4.90;;;16.10;99.90;;;;;;5070803;28;20052;-65
2022/07/24 02:43:40;;;;;;;9.88;4.30;;;16.10;99.90;;;;;;5070858;28;20041;-64
2022/07/24 02:46:06;;;;;;;6.13;4.82;;;16.10;99.90;;;;;;5070328;28;20072;-64
2022/07/24 02:48:31;;;;;;;5.93;4.68;;;16.10;99.90;;;;;;5070297;28;20536;-64
2022/07/24 02:50:57;;;;;;;8.55;5.38;;;16.10;99.90;;;;;;5069045;28;20127;-64
2022/07/24 02:53:23;;;;;;;6.13;4.70;;;16.10;99.90;;;;;;5052509;28;20040;-64
2022/07/24 02:55:49;;;;;;;5.85;4.50;;;16.10;99.90;;;;;;5070357;28;20045;-64
2022/07/24 02:58:14;;;;;;;7.80;4.95;;;16.00;99.90;;;;;;5070537;28;20113;-64
2022/07/24 03:00:40;;;;;;;6.78;4.90;;;16.10;99.90;;;;;;5070213;28;20050;-64
2022/07/24 03:03:06;;;;;;;7.50;4.55;;;16.10;99.90;;;;;;5068692;28;20348;-64
2022/07/24 03:05:32;;;;;;;5.80;4.82;;;16.10;99.90;;;;;;5069386;28;20583;-64
2022/07/24 03:07:57;;;;;;;7.93;5.00;;;16.00;99.90;;;;;;5069832;28;20405;-64
2022/07/24 03:10:23;;;;;;;6.30;4.82;;;16.10;99.90;;;;;;5070047;28;20044;-64
2022/07/24 03:12:49;;;;;;;6.18;4.88;;;16.10;99.90;;;;;;5069572;28;20048;-66
2022/07/24 03:15:15;;;;;;;6.78;4.60;;;16.10;99.90;;;;;;5069111;28;20052;-64
2022/07/24 03:18:01;;;;;;;6.05;4.95;;;16.10;99.90;;;;;;5070124;28;20141;-65
2022/07/24 03:20:28;;;;;;;5.97;5.00;;;16.10;99.90;;;;;;5070063;28;20450;-64
2022/07/24 03:22:55;;;;;;;7.45;5.00;;;16.10;99.90;;;;;;5069784;28;20057;-64
2022/07/24 03:25:21;;;;;;;5.25;4.72;;;16.10;99.90;;;;;;5069440;28;20053;-65
2022/07/24 03:27:48;;;;;;;7.40;4.70;;;16.10;99.90;;;;;;5052204;28;20202;-66
2022/07/24 03:30:15;;;;;;;7.00;4.90;;;16.10;99.90;;;;;;5070110;28;20059;-64
2022/07/24 03:32:40;;;;;;;9.82;4.68;;;16.20;99.90;;;;;;5070155;28;20048;-64
2022/07/24 03:35:07;;;;;;;7.32;4.72;;;16.10;99.90;;;;;;5059702;28;20060;-64
2022/07/24 03:37:33;;;;;;;6.57;4.35;;;16.20;99.90;;;;;;5064697;28;20056;-64
2022/07/24 03:39:58;;;;;;;6.95;4.78;;;16.20;99.90;;;;;;5068216;28;20125;-66
2022/07/24 03:42:24;;;;;;;6.30;4.90;;;16.20;99.90;;;;;;5061523;28;20383;-66
2022/07/24 03:44:50;;;;;;;7.20;4.93;;;16.20;99.90;;;;;;5054650;28;20032;-66
2022/07/24 03:47:16;;;;;;;6.40;4.35;;;16.20;99.90;;;;;;5050833;28;20052;-64
2022/07/24 03:49:41;;;;;;;5.78;5.00;;;16.30;99.90;;;;;;5054724;28;20045;-65
2022/07/24 03:52:07;;;;;;;5.45;4.63;;;16.30;99.90;;;;;;5055328;28;20052;-63
2022/07/24 03:54:33;;;;;;;7.10;4.95;;;16.40;99.90;;;;;;5049610;28;20044;-65
2022/07/24 03:56:58;;;;;;;6.22;4.57;;;16.30;99.90;;;;;;5055189;28;20055;-67
2022/07/24 03:59:24;;;;;;;7.47;5.15;;;16.40;99.90;;;;;;5058022;28;20056;-67
2022/07/24 04:01:50;;;;;;;8.20;5.10;;;16.40;99.90;;;;;;5057107;28;20060;-63
2022/07/24 04:04:15;;;;;;;6.95;5.30;;;16.40;99.90;;;;;;5053231;28;20041;-64
2022/07/24 04:06:41;;;;;;;7.78;5.35;;;16.50;99.90;;;;;;5059812;28;20144;-63
2022/07/24 04:09:07;;;;;;;7.15;5.00;;;16.50;99.90;;;;;;5056912;28;20053;-63
2022/07/24 04:11:33;;;;;;;6.10;4.80;;;16.50;99.90;;;;;;5055463;28;20402;-63
2022/07/24 04:13:59;;;;;;;6.43;5.03;;;16.50;99.90;;;;;;5055916;28;20037;-66
2022/07/24 04:16:25;;;;;;;7.20;4.95;;;16.50;99.90;;;;;;5058732;28;20055;-66
2022/07/24 04:18:51;;;;;;;6.55;4.45;;;16.50;99.90;;;;;;5053820;28;20057;-64
2022/07/24 04:21:17;;;;;;;7.18;4.82;;;16.60;99.90;;;;;;5058818;28;20382;-65
2022/07/24 04:23:42;;;;;;;6.35;4.60;;;16.60;99.90;;;;;;5058975;28;20033;-64
2022/07/24 04:26:08;;;;;;;5.88;4.95;;;16.60;99.90;;;;;;5056400;28;20125;-64
2022/07/24 04:28:34;;;;;;;6.60;5.40;;;16.70;99.90;;;;;;5062533;28;20061;-64
2022/07/24 04:31:00;;;;;;;6.85;4.72;;;16.70;99.90;;;;;;5056805;28;20059;-65
2022/07/24 04:33:26;;;;;;;7.40;4.60;;;16.70;99.90;;;;;;5057318;28;20036;-64
2022/07/24 04:35:51;;;;;;;6.32;4.93;;;16.70;99.90;;;;;;5057914;28;20041;-63
2022/07/24 04:38:17;;;;;;;6.80;5.28;;;16.70;99.90;;;;;;5071436;28;20055;-63
2022/07/24 04:40:43;;;;;;;6.13;4.63;;;16.80;99.90;;;;;;5070947;28;20052;-63
2022/07/24 04:43:09;;;;;;;7.63;4.82;;;16.80;99.90;;;;;;5058171;28;20430;-63
2022/07/24 04:45:35;;;;;;;6.63;5.05;;;16.80;99.90;;;;;;5057425;28;20134;-63
2022/07/24 04:48:00;;;;;;;6.95;5.22;;;16.90;99.90;;;;;;5054228;28;20056;-63
2022/07/24 04:50:26;;;;;;;9.05;4.88;;;17.00;99.90;;;;;;5063124;28;20505;-62
2022/07/24 04:52:52;;;;;;;6.95;4.93;;;17.10;99.90;;;;;;5064952;28;20054;-63
2022/07/24 04:55:17;;;;;;;6.50;4.93;;;17.10;99.90;;;;;;5054540;28;20139;-63
2022/07/24 04:57:43;;;;;;;8.07;5.03;;;17.20;99.90;;;;;;5055261;28;20056;-63
2022/07/24 05:00:11;;;;;;;6.25;4.95;;;17.20;99.90;;;;;;5067249;28;20141;-64
2022/07/24 05:02:37;;;;;;;8.05;5.22;;;17.50;99.90;;;;;;5059951;28;20052;-64
2022/07/24 05:05:03;;;;;;;5.70;4.45;;;17.80;99.90;;;;;;5054192;28;20062;-64
2022/07/24 05:07:29;;;;;;;5.63;4.70;;;18.30;99.90;;;;;;5049851;28;20202;-64
2022/07/24 05:09:56;;;;;;;5.60;4.35;;;18.80;99.90;;;;;;5057929;28;20378;-64
2022/07/24 05:12:21;;;;;;;6.78;4.60;;;19.40;99.90;;;;;;5036051;28;20091;-64
2022/07/24 05:14:47;;;;;;;5.80;4.38;;;20.00;99.90;;;;;;5056625;28;20072;-64
2022/07/24 05:17:13;;;;;;;4.88;4.05;;;20.40;99.90;;;;;;5052030;28;20037;-64
2022/07/24 05:19:38;;;;;;;6.40;4.45;;;20.50;99.90;;;;;;5052373;28;20041;-64
2022/07/24 05:22:04;;;;;;;5.97;4.45;;;20.60;99.90;;;;;;5051880;28;20083;-67
2022/07/24 05:24:29;;;;;;;7.80;4.75;;;20.40;99.90;;;;;;5056410;28;20489;-65
2022/07/24 05:26:55;;;;;;;7.40;4.78;;;20.10;99.90;;;;;;5064227;28;20134;-64
2022/07/24 05:29:21;;;;;;;5.22;4.40;;;19.80;99.90;;;;;;5051754;28;20080;-64
2022/07/24 05:31:47;;;;;;;10.68;4.85;;;19.50;99.90;;;;;;5052000;28;20088;-64
2022/07/24 05:34:13;;;;;;;6.55;4.70;;;19.40;99.90;;;;;;5057591;28;20040;-64
2022/07/24 05:36:38;;;;;;;8.48;5.28;;;19.30;99.90;;;;;;5061423;28;20044;-64
2022/07/24 05:39:05;;;;;;;6.30;4.53;;;19.30;99.90;;;;;;5071580;28;20049;-67
2022/07/24 05:41:32;;;;;;;8.15;5.65;;;19.40;99.90;;;;;;5072063;28;20052;-64
2022/07/24 05:43:57;;;;;;;6.43;5.07;;;19.30;99.90;;;;;;5070794;28;20049;-66
2022/07/24 05:46:23;;;;;;;6.18;4.35;;;19.20;99.90;;;;;;5070676;28;20454;-65
2022/07/24 05:48:49;;;;;;;6.95;4.90;;;19.20;99.90;;;;;;5072087;28;20423;-64
2022/07/24 05:51:15;;;;;;;5.93;4.93;;;19.20;99.90;;;;;;5070796;28;20051;-65
2022/07/24 05:53:40;;;;;;;7.88;4.80;;;19.20;99.90;;;;;;5057858;28;20044;-65
2022/07/24 05:56:06;;;;;;;7.20;4.70;;;19.40;99.90;;;;;;5048677;28;20401;-67
2022/07/24 05:58:32;;;;;;;8.02;5.50;;;19.50;99.90;;;;;;5069666;28;20533;-64
2022/07/24 06:00:58;;;;;;;8.00;5.53;;;19.60;99.90;;;;;;5071744;28;20052;-65
2022/07/24 06:03:23;;;;;;;6.50;5.25;;;19.80;99.90;;;;;;5069657;28;20077;-65
2022/07/24 06:05:49;;;;;;;7.32;5.70;;;20.00;99.90;;;;;;5069763;28;20052;-65
2022/07/24 06:08:15;;;;;;;8.75;5.38;;;20.50;99.90;;;;;;5069576;28;20040;-65
2022/07/24 06:10:41;;;;;;;7.35;5.78;;;;;;;;;;5070202;28;20048;-65
2022/07/24 06:13:06;;;;;;;6.63;5.47;;;21.30;99.90;;;;;;5071220;28;20053;-65
2022/07/24 06:15:32;;;;;;;8.60;5.72;;;23.40;99.90;;;;;;5070508;28;20051;-65
2022/07/24 06:17:58;;;;;;;6.53;5.10;;;24.30;99.90;;;;;;5071163;28;20394;-65
2022/07/24 06:20:24;;;;;;;12.45;5.82;;;25.10;99.90;;;;;;5070461;28;20052;-65
2022/07/24 06:22:50;;;;;;;6.93;5.45;;;25.60;98.50;;;;;;5070555;28;20395;-65
2022/07/24 06:25:17;;;;;;;7.28;5.50;;;25.60;98.90;;;;;;5070865;28;20067;-65
2022/07/24 06:27:44;;;;;;;7.50;5.82;;;25.60;99.20;;;;;;5067171;28;20398;-65
2022/07/24 06:30:21;;;;;;;7.35;6.55;;;26.00;98.00;;;;;;5067077;28;20083;-65
2022/07/24 06:32:48;;;;;;;7.38;6.15;;;26.40;97.10;;;;;;5071133;28;20048;-65
2022/07/24 06:35:15;;;;;;;8.80;6.50;;;26.90;96.00;;;;;;5068792;28;20079;-68
2022/07/24 06:37:41;;;;;;;9.45;6.15;;;27.40;95.70;;;;;;5065808;28;20047;-64
2022/07/24 06:40:08;;;;;;;8.30;6.47;;;27.90;95.40;;;;;;5065409;28;20052;-64
2022/07/24 06:42:35;;;;;;;10.73;6.65;;;28.40;94.40;;;;;;5069227;28;20123;-65
2022/07/24 06:45:00;;;;;;;8.50;6.57;;;28.60;94.90;;;;;;5070777;28;20051;-65
2022/07/24 06:47:26;;;;;;;9.75;6.95;;;28.90;93.80;;;;;;5070020;28;20044;-65
2022/07/24 06:49:53;;;;;;;8.05;7.15;;;29.30;93.40;;;;;;5068941;28;20090;-65
2022/07/24 06:52:20;;;;;;;12.25;7.88;;;29.30;93.00;;;;;;5070388;28;20091;-65
2022/07/24 06:54:46;;;;;;;8.93;7.28;;;29.20;92.70;;;;;;5069381;28;20032;-65
2022/07/24 06:57:12;;;;;;;11.13;7.40;;;29.30;92.80;;;;;;5069568;28;20509;-65
2022/07/24 06:59:37;;;;;;;11.35;7.40;;;29.60;92.70;;;;;;5064820;28;20083;-65
2022/07/24 07:02:03;;;;;;;9.85;6.80;;;29.60;92.40;;;;;;5069609;28;20084;-65
2022/07/24 07:04:29;;;;;;;7.72;6.93;;;29.80;92.60;;;;;;5069207;28;20490;-65
2022/07/24 07:06:55;;;;;;;8.88;7.18;;;29.90;92.60;;;;;;5068402;28;20044;-65
2022/07/24 07:09:21;;;;;;;8.80;7.82;;;30.10;92.30;;;;;;5068670;28;20059;-65
2022/07/24 07:11:47;;;;;;;8.20;6.93;;;30.60;92.30;;;;;;5063159;28;20128;-65
2022/07/24 07:14:13;;;;;;;9.00;7.05;;;30.90;91.40;;;;;;5049265;28;20045;-65
2022/07/24 07:16:38;;;;;;;10.00;6.82;;;30.60;91.10;;;;;;5052594;28;20411;-66
2022/07/24 07:19:04;;;;;;;9.10;7.03;;;30.70;90.80;;;;;;5056182;28;20052;-63
2022/07/24 07:21:30;;;;;;;8.93;6.95;;;30.60;90.70;;;;;;5070145;28;20045;-64
2022/07/24 07:23:55;;;;;;;7.40;6.70;;;30.70;90.60;;;;;;5049067;28;20060;-64
2022/07/24 07:26:21;;;;;;;8.60;6.68;;;31.00;90.30;;;;;;5050198;28;20045;-64
2022/07/24 07:28:47;;;;;;;7.85;6.35;;;31.40;90.80;;;;;;5060600;28;20071;-63
2022/07/24 07:31:13;;;;;;;8.88;6.50;;;31.70;89.20;;;;;;5061031;28;20129;-63
2022/07/24 07:33:38;;;;;;;6.82;6.13;;;32.00;88.30;;;;;;5047671;28;20152;-62
2022/07/24 07:36:04;;;;;;;8.40;6.13;;;32.30;88.60;;;;;;5053227;28;20102;-63
2022/07/24 07:38:30;;;;;;;7.63;6.20;;;32.50;86.70;;;;;;5061468;28;20113;-61
2022/07/24 07:40:56;;;;;;;10.07;5.90;;;32.80;88.20;;;;;;5070390;28;20116;-65
2022/07/24 07:43:22;;;;;;;7.85;5.72;;;33.20;86.10;;;;;;5067302;28;20476;-67
2022/07/24 07:45:47;;;;;;;6.47;5.30;;;33.20;84.90;;;;;;5060159;28;20040;-64
2022/07/24 07:48:13;;;;;;;7.35;5.07;;;33.20;83.90;;;;;;5054507;28;20041;-63
2022/07/24 07:50:39;;;;;;;5.32;4.20;;;33.40;84.80;;;;;;5063836;28;20470;-65
2022/07/24 07:53:04;;;;;;;5.55;3.92;;;32.70;84.70;;;;;;5051297;28;20049;-63
2022/07/24 07:55:30;;;;;;;5.50;3.83;;;31.70;84.30;;;;;;5049353;28;20068;-63
2022/07/24 07:57:56;;;;;;;5.80;3.58;;;30.80;85.60;;;;;;5048664;28;20470;-63
2022/07/24 08:00:21;;;;;;;6.35;3.00;;;30.10;85.80;;;;;;5060638;28;20102;-62
2022/07/24 08:02:47;;;;;;;4.47;3.20;;;29.50;86.60;;;;;;5055039;28;20056;-63
2022/07/24 08:05:13;;;;;;;5.90;3.08;;;29.00;87.20;;;;;;5050057;28;20192;-64
2022/07/24 08:07:39;;;;;;;5.88;3.10;;;28.80;88.50;;;;;;5049844;28;20415;-63
2022/07/24 08:10:05;;;;;;;5.43;3.10;;;28.90;88.00;;;;;;5056552;28;20041;-71
2022/07/24 08:12:31;;;;;;;5.60;2.85;;;28.80;88.30;;;;;;5057187;28;20098;-66
2022/07/24 08:14:57;;;;;;;4.15;3.00;;;28.80;88.20;;;;;;5065094;28;20029;-65
2022/07/24 08:17:23;;;;;;;4.60;3.42;;;28.80;88.30;;;;;;5049997;28;20045;-65
2022/07/24 08:19:48;;;;;;;4.75;2.97;;;28.80;88.50;;;;;;5051800;28;20044;-64
2022/07/24 08:22:14;;;;;;;4.25;2.97;;;29.10;89.40;;;;;;5057704;28;20051;-64
2022/07/24 08:24:40;;;;;;;4.38;3.00;;;29.60;88.90;;;;;;5058198;28;20044;-65
2022/07/24 08:27:06;;;;;;;4.45;3.05;;;30.00;87.50;;;;;;5064356;28;20097;-64
2022/07/24 08:29:31;;;;;;;5.45;3.17;;;30.60;87.50;;;;;;5055411;28;20037;-65
2022/07/24 08:31:57;;;;;;;4.25;3.30;;;31.10;85.90;;;;;;5068499;28;20453;-64
2022/07/24 08:34:23;;;;;;;4.07;3.17;;;31.50;85.60;;;;;;5061345;28;20093;-63
2022/07/24 08:36:49;;;;;;;4.18;3.00;;;31.40;85.80;;;;;;5069397;28;20047;-65
2022/07/24 08:39:15;;;;;;;3.97;2.78;;;31.10;86.40;;;;;;5069667;28;20048;-64
2022/07/24 08:41:42;;;;;;;5.18;3.05;;;30.80;85.80;;;;;;5068515;28;20078;-64
2022/07/24 08:44:09;;;;;;;4.00;2.85;;;30.50;86.40;;;;;;5072004;28;20397;-64
2022/07/24 08:46:40;;;;;;;4.75;2.97;;;30.10;85.00;;;;;;5072372;28;20048;-63
2022/07/24 08:49:14;;;;;;;7.50;2.95;;;29.60;86.10;;;;;;5072193;28;20467;-64
2022/07/24 08:51:42;;;;;;;3.80;2.75;;;29.10;86.30;;;;;;5069535;28;20040;-64
2022/07/24 08:54:09;;;;;;;3.80;2.63;;;28.90;87.80;;;;;;5057570;28;20056;-63
2022/07/24 08:56:40;;;;;;;4.85;3.13;;;28.90;87.40;;;;;;5069169;28;20049;-64
2022/07/24 08:59:16;;;;;;;5.05;3.20;;;28.50;88.20;;;;;;5071948;28;20166;-64
2022/07/24 09:01:42;;;;;;;4.32;2.95;;;28.40;88.60;;;;;;5054285;28;20048;-67
2022/07/24 09:04:34;;;;;;;5.25;3.10;;;28.30;89.50;;;;;;5072202;28;20398;-63
2022/07/24 09:07:02;;;;;;;4.85;3.05;;;28.40;89.90;;;;;;5059369;28;20148;-65
2022/07/24 09:09:27;;;;;;;5.28;3.20;;;28.50;90.00;;;;;;5052958;28;20044;-63
2022/07/24 09:12:06;;;;;;;6.22;2.70;;;29.20;89.70;;;;;;5052511;28;20049;-66
2022/07/24 09:14:37;;;;;;;4.35;3.03;;;29.80;88.60;;;;;;5069819;28;20098;-65
2022/07/24 09:17:06;;;;;;;4.70;2.70;;;29.90;88.20;;;;;;5069179;28;20045;-64
2022/07/24 09:19:46;;;;;;;5.47;2.92;;;29.90;88.00;;;;;;5072538;28;20048;-65
2022/07/24 09:22:34;;;;;;;7.68;3.00;;;29.70;88.20;;;;;;5072784;28;20045;-64
2022/07/24 09:25:23;;;;;;;4.65;3.10;;;29.60;87.80;;;;;;5064959;28;20109;-63
2022/07/24 09:27:54;;;;;;;3.58;2.45;;;29.60;88.30;;;;;;5051724;28;20041;-65
2022/07/24 09:30:28;;;;;;;6.38;2.88;;;29.90;88.50;;;;;;5052445;28;20037;-65
2022/07/24 09:32:56;;;;;;;4.18;2.90;;;30.60;88.30;;;;;;5051713;28;20122;-64
2022/07/24 09:35:28;;;;;;;5.35;3.20;;;31.20;87.00;;;;;;5057793;28;20048;-63
2022/07/24 09:37:56;;;;;;;4.55;3.28;;;31.20;86.40;;;;;;5070364;28;20051;-64
2022/07/24 09:40:27;;;;;;;5.50;3.40;;;31.30;86.90;;;;;;5071034;28;20102;-64
2022/07/24 09:43:11;;;;;;;4.07;2.70;;;31.50;86.30;;;;;;5071397;28;20048;-63
2022/07/24 09:45:52;;;;;;;5.18;2.70;;;31.60;87.20;;;;;;5064196;28;20063;-64
2022/07/24 09:48:23;;;;;;;5.03;2.67;;;31.70;85.90;;;;;;5065394;28;20120;-64
2022/07/24 09:50:51;;;;;;;7.70;2.70;;;32.00;87.00;;;;;;5059182;28;20048;-64
2022/07/24 09:53:23;;;;;;;7.00;2.90;;;32.30;84.60;;;;;;5036070;28;20128;-64
2022/07/24 09:56:14;;;;;;;4.85;2.55;;;32.40;85.20;;;;;;5062974;28;20045;-65
2022/07/24 09:58:44;;;;;;;7.88;2.50;;;32.30;85.10;;;;;;5073706;28;20406;-70
2022/07/24 10:01:10;;;;;;;4.13;2.47;;;31.90;84.50;;;;;;5068028;28;20056;-64
2022/07/24 10:03:38;;;;;;;3.38;2.22;;;31.80;85.30;;;;;;5056090;28;20041;-65
2022/07/24 10:06:07;;;;;;;6.55;2.88;;;31.70;86.10;;;;;;5060683;28;20068;-66
2022/07/24 10:08:34;;;;;;;6.38;2.30;;;31.60;85.50;;;;;;5051883;28;20055;-66
2022/07/24 10:11:00;;;;;;;3.95;2.30;;;31.30;85.30;;;;;;5050045;28;20211;-63
2022/07/24 10:13:29;;;;;;;5.68;2.20;;;31.30;86.70;;;;;;5051203;28;20041;-65
2022/07/24 10:16:14;;;;;;;3.83;2.40;;;31.20;86.80;;;;;;5060320;28;20044;-62
2022/07/24 10:18:54;;;;;;;7.28;2.38;;;31.30;85.50;;;;;;5051438;28;20033;-62
2022/07/24 10:21:21;;;;;;;4.72;2.47;;;31.30;85.20;;;;;;5051247;28;20041;-63
2022/07/24 10:24:11;;;;;;;4.78;2.30;;;30.90;85.10;;;;;;5050664;28;20092;-63
2022/07/24 10:26:40;;;;;;;3.20;2.20;;;30.60;86.80;;;;;;5055450;28;20048;-63
2022/07/24 10:29:10;;;;;;;3.75;2.28;;;30.60;86.10;;;;;;5065854;28;20045;-63
2022/07/24 10:31:38;;;;;;;4.03;2.33;;;30.50;85.70;;;;;;5068992;28;20055;-62
2022/07/24 10:34:12;;;;;;;3.40;2.15;;;30.30;85.40;;;;;;5068480;28;20043;-63
2022/07/24 10:36:59;;;;;;;5.32;2.65;;;30.30;85.70;;;;;;5066245;28;20041;-64
2022/07/24 10:39:34;;;;;;;4.03;2.30;;;30.20;86.20;;;;;;5054700;28;20064;-63
2022/07/24 10:42:05;;;;;;;4.20;2.28;;;30.10;86.10;;;;;;5069132;28;20090;-63
2022/07/24 10:44:31;;;;;;;3.35;2.25;;;30.20;86.60;;;;;;5053657;28;20043;-64
2022/07/24 10:47:03;;;;;;;5.43;2.40;;;30.20;85.70;;;;;;5060781;28;20044;-66
2022/07/24 10:49:36;;;;;;;5.18;2.70;;;30.10;84.70;;;;;;5059220;28;20130;-64
2022/07/24 10:52:02;;;;;;;3.17;2.13;;;30.10;84.90;;;;;;5069789;28;20061;-67
2022/07/24 10:54:27;;;;;;;4.57;2.00;;;30.20;85.20;;;;;;5053233;28;20039;-64
2022/07/24 10:56:53;;;;;;;2.83;2.20;;;30.20;84.20;;;;;;5050349;28;20052;-63
2022/07/24 10:59:45;;;;;;;4.55;2.33;;;30.10;84.40;;;;;;5064675;28;20048;-63
2022/07/24 11:02:28;;;;;;;6.55;2.33;;;30.10;85.40;;;;;;5059747;28;20060;-63
2022/07/24 11:05:29;;;;;;;4.53;2.33;;;30.00;84.80;;;;;;5050784;28;20049;-65
2022/07/24 11:08:29;;;;;;;3.53;1.98;;;30.00;85.60;;;;;;5055171;28;20088;-65
2022/07/24 11:10:58;;;;;;;6.90;2.67;;;30.10;86.10;;;;;;5062538;28;20091;-63
2022/07/24 11:13:33;;;;;;;4.30;2.10;;;30.20;86.60;;;;;;5068482;28;20143;-64
2022/07/24 11:16:11;;;;;;;5.05;2.50;;;30.30;85.70;;;;;;5068724;28;20037;-63
2022/07/24 11:19:02;;;;;;;4.20;2.20;;;30.20;86.10;;;;;;5057135;28;20433;-63
2022/07/24 11:21:28;;;;;;;4.93;2.65;;;30.30;85.60;;;;;;5061813;28;20048;-64
2022/07/24 11:24:16;;;;;;;4.13;2.47;;;30.20;85.00;;;;;;5057668;28;20045;-62
2022/07/24 11:26:58;;;;;;;4.95;2.58;;;30.10;86.10;;;;;;5054054;28;20056;-61
2022/07/24 11:29:38;;;;;;;6.70;2.42;;;30.20;87.40;;;;;;5065604;28;20079;-65
2022/07/24 11:32:07;;;;;;;3.97;2.45;;;30.10;86.00;;;;;;5052010;28;20052;-61
2022/07/24 11:34:34;;;;;;;4.53;2.30;;;30.00;85.50;;;;;;5054278;28;20462;-63
2022/07/24 11:37:00;;;;;;;4.32;2.67;;;29.90;85.50;;;;;;5048270;28;20052;-64
2022/07/24 11:39:33;;;;;;;4.32;2.38;;;29.80;85.40;;;;;;5049107;28;20451;-62
2022/07/24 11:42:00;;;;;;;3.95;2.50;;;29.70;84.70;;;;;;5066080;28;20048;-63
2022/07/24 11:44:28;;;;;;;4.35;2.55;;;29.60;85.50;;;;;;5051056;28;20037;-63
2022/07/24 11:46:57;;;;;;;4.70;2.30;;;29.60;84.20;;;;;;5048366;28;20057;-64
2022/07/24 11:49:24;;;;;;;5.90;2.40;;;29.60;84.70;;;;;;5048970;28;20053;-63
2022/07/24 11:51:51;;;;;;;4.75;2.40;;;29.70;84.80;;;;;;5062741;28;20076;-63
2022/07/24 11:54:24;;;;;;;4.68;2.50;;;29.80;84.60;;;;;;5063798;28;20389;-63
2022/07/24 11:56:50;;;;;;;2.92;2.08;;;29.70;84.40;;;;;;5064513;28;20463;-62
2022/07/24 11:59:28;;;;;;;4.28;2.25;;;29.60;83.50;;;;;;5068932;28;20474;-63
2022/07/24 12:02:07;;;;;;;3.88;2.38;;;29.70;83.00;;;;;;5051805;28;20064;-67
2022/07/24 12:04:33;;;;;;;4.00;2.20;;;29.70;83.70;;;;;;5066045;28;20056;-62
2022/07/24 12:06:59;;;;;;;4.82;2.25;;;29.80;85.00;;;;;;5069294;28;20095;-62
2022/07/24 12:09:25;;;;;;;4.05;2.20;;;29.80;83.10;;;;;;5068162;28;20398;-63
2022/07/24 12:11:51;;;;;;;5.95;2.45;;;29.60;83.00;;;;;;5069661;28;20477;-63
2022/07/24 12:14:20;;;;;;;5.97;2.30;;;29.50;84.00;;;;;;5069658;28;20040;-63
2022/07/24 12:16:52;;;;;;;3.80;2.33;;;29.40;84.80;;;;;;5070985;28;20111;-63
2022/07/24 12:19:22;;;;;;;3.60;2.35;;;29.20;85.00;;;;;;5073183;28;20047;-62
2022/07/24 12:21:50;;;;;;;3.38;2.38;;;29.10;85.40;;;;;;5073624;28;20048;-62
2022/07/24 12:24:16;;;;;;;4.53;2.40;;;29.20;86.70;;;;;;5072983;28;20129;-63
2022/07/24 12:26:56;;;;;;;4.75;2.58;;;29.30;86.20;;;;;;5072459;28;20079;-63
2022/07/24 12:29:25;;;;;;;4.88;2.53;;;29.30;87.20;;;;;;5050160;28;20044;-64
2022/07/24 12:32:13;;;;;;;4.20;2.35;;;29.40;86.40;;;;;;5069540;28;20050;-62
2022/07/24 12:34:44;;;;;;;3.70;2.25;;;29.40;85.50;;;;;;5060865;28;20467;-63
2022/07/24 12:37:18;;;;;;;4.47;2.35;;;29.40;85.90;;;;;;5063989;28;20094;-62
2022/07/24 12:39:51;;;;;;;4.47;2.05;;;29.50;84.80;;;;;;5068192;28;20060;-62
2022/07/24 12:42:18;;;;;;;4.28;2.15;;;29.40;84.60;;;;;;5077548;28;20049;-63
2022/07/24 12:44:45;;;;;;;2.92;2.10;;;29.40;84.20;;;;;;5072923;28;20055;-62
2022/07/24 12:47:12;;;;;;;5.47;2.28;;;29.30;85.20;;;;;;5064118;28;20060;-62
2022/07/24 12:49:46;;;;;;;4.53;2.47;;;29.40;83.40;;;;;;5051499;28;20049;-61
2022/07/24 12:52:25;;;;;;;9.27;2.60;;;29.40;83.60;;;;;;5055442;28;20102;-62